地図

経路データ

SID SEASON NUMBER BASIN SUBBASIN NAME ISO_TIME NATURE LAT LON WMO_WIND WMO_PRES WMO_AGENCY TRACK_TYPE DIST2LAND LANDFALL IFLAG USA_AGENCY USA_ATCF_ID USA_LAT USA_LON USA_RECORD USA_STATUS USA_WIND USA_PRES USA_SSHS USA_R34_NE USA_R34_SE USA_R34_SW USA_R34_NW USA_R50_NE USA_R50_SE USA_R50_SW USA_R50_NW USA_R64_NE USA_R64_SE USA_R64_SW USA_R64_NW USA_POCI USA_ROCI USA_RMW USA_EYE TOKYO_LAT TOKYO_LON TOKYO_GRADE TOKYO_WIND TOKYO_PRES TOKYO_R50_DIR TOKYO_R50_LONG TOKYO_R50_SHORT TOKYO_R30_DIR TOKYO_R30_LONG TOKYO_R30_SHORT TOKYO_LAND CMA_LAT CMA_LON CMA_CAT CMA_WIND CMA_PRES HKO_LAT HKO_LON HKO_CAT HKO_WIND HKO_PRES NEWDELHI_LAT NEWDELHI_LON NEWDELHI_GRADE NEWDELHI_WIND NEWDELHI_PRES NEWDELHI_CI NEWDELHI_DP NEWDELHI_POCI REUNION_LAT REUNION_LON REUNION_TYPE REUNION_WIND REUNION_PRES REUNION_TNUM REUNION_CI REUNION_RMW REUNION_R34_NE REUNION_R34_SE REUNION_R34_SW REUNION_R34_NW REUNION_R50_NE REUNION_R50_SE REUNION_R50_SW REUNION_R50_NW REUNION_R64_NE REUNION_R64_SE REUNION_R64_SW REUNION_R64_NW BOM_LAT BOM_LON BOM_TYPE BOM_WIND BOM_PRES BOM_TNUM BOM_CI BOM_RMW BOM_R34_NE BOM_R34_SE BOM_R34_SW BOM_R34_NW BOM_R50_NE BOM_R50_SE BOM_R50_SW BOM_R50_NW BOM_R64_NE BOM_R64_SE BOM_R64_SW BOM_R64_NW BOM_ROCI BOM_POCI BOM_EYE BOM_POS_METHOD BOM_PRES_METHOD NADI_LAT NADI_LON NADI_CAT NADI_WIND NADI_PRES WELLINGTON_LAT WELLINGTON_LON WELLINGTON_WIND WELLINGTON_PRES DS824_LAT DS824_LON DS824_STAGE DS824_WIND DS824_PRES TD9636_LAT TD9636_LON TD9636_STAGE TD9636_WIND TD9636_PRES TD9635_LAT TD9635_LON TD9635_WIND TD9635_PRES TD9635_ROCI NEUMANN_LAT NEUMANN_LON NEUMANN_CLASS NEUMANN_WIND NEUMANN_PRES MLC_LAT MLC_LON MLC_CLASS MLC_WIND MLC_PRES USA_GUST BOM_GUST BOM_GUST_PER REUNION_GUST REUNION_GUST_PER USA_SEAHGT USA_SEARAD_NE USA_SEARAD_SE USA_SEARAD_SW USA_SEARAD_NW STORM_SPEED STORM_DIR
1943081S12076 1943 25 SI MM NOT_NAMED 1943-03-22 06:00:00 NR -11.8000 76.3000 reunion main 2039 2039 _____O________ -1 -11.8000 76.3000 99 9.90000 0 0
1943081S12076 1943 25 SI MM NOT_NAMED 1943-03-22 09:00:00 NR -11.7909 76.2989 main 2039 2039 _____P________ -1 -11.7909 76.2989 99 0 0
1943081S12076 1943 25 SI MM NOT_NAMED 1943-03-22 12:00:00 NR -11.7839 76.2837 main 2039 2039 _____P________ -1 -11.7839 76.2837 99 1 280
1943081S12076 1943 25 SI MM NOT_NAMED 1943-03-22 15:00:00 NR -11.7811 76.2401 main 2042 2042 _____P________ -1 -11.7811 76.2401 99 1 270
1943081S12076 1943 25 SI MM NOT_NAMED 1943-03-22 18:00:00 NR -11.7845 76.1539 main 2042 2042 _____P________ -1 -11.7845 76.1539 99 2 266
1943081S12076 1943 25 SI MM NOT_NAMED 1943-03-22 21:00:00 NR -11.7962 76.0111 main 2047 2047 _____P________ -1 -11.7962 76.0111 99 4 265
1943081S12076 1943 25 SI MM NOT_NAMED 1943-03-23 00:00:00 NR -11.8181 75.7974 main 2053 2053 _____P________ -1 -11.8181 75.7974 99 5 264
1943081S12076 1943 25 SI MM NOT_NAMED 1943-03-23 03:00:00 NR -11.8521 75.4984 main 2072 2071 _____P________ -1 -11.8521 75.4984 99 7 263
1943081S12076 1943 25 SI MM NOT_NAMED 1943-03-23 06:00:00 NR -11.9000 75.1000 reunion main 2071 2018 _____O________ -1 -11.9000 75.1000 99 9.90000 9 263
1943081S12076 1943 25 SI MM NOT_NAMED 1943-03-23 09:00:00 NR -11.9632 74.5926 main 2018 1962 _____P________ -1 -11.9632 74.5926 99 11 263
1943081S12076 1943 25 SI MM NOT_NAMED 1943-03-23 12:00:00 NR -12.0426 73.9862 main 1962 1890 _____P________ -1 -12.0426 73.9862 99 13 262
1943081S12076 1943 25 SI MM NOT_NAMED 1943-03-23 15:00:00 NR -12.1388 73.2959 main 1890 1875 _____P________ -1 -12.1388 73.2959 99 8 262
1943081S12076 1943 25 SI MM NOT_NAMED 1943-03-23 18:00:00 NR -12.1619 73.1691 main 1875 1804 _____P____O___ -1 -12.2524 72.5363 99 -11.8000 75.7000 1 8 259
1943081S12076 1943 25 SI MM NOT_NAMED 1943-03-23 21:00:00 NR -12.2939 72.4508 main 1804 1699 _____P____P___ -1 -12.3843 71.7224 99 -12.1131 73.9077 1 17 259
1943081S12076 1943 25 SI MM NOT_NAMED 1943-03-24 00:00:00 NR -12.4799 71.4302 main 1690 1586 _____P____P___ -1 -12.5354 70.8686 99 -12.4059 72.1790 1 22 259
1943081S12076 1943 25 SI MM NOT_NAMED 1943-03-24 03:00:00 NR -12.6885 70.2880 main 1577 1466 _____P____P___ -1 -12.7069 69.9897 99 -12.6702 70.5862 1 23 259
1943081S12076 1943 25 SI MM NOT_NAMED 1943-03-24 06:00:00 TS -12.9000 69.1555 reunion main 1466 1365 _____O___OO___ -1 -12.9000 69.1000 99 9.90000 -12.9000 69.2000 TC 25 -12.9000 69.2000 1 21 259
1943081S12076 1943 25 SI MM NOT_NAMED 1943-03-24 09:00:00 TS -13.0969 68.1428 main 1356 1274 _____P___PP___ -1 -13.1300 68.1724 99 -13.0333 68.2401 TC 25 -13.0957 68.0646 1 19 258
1943081S12076 1943 25 SI MM NOT_NAMED 1943-03-24 12:00:00 TS -13.2958 67.2028 main 1265 1184 _____P___OP___ -1 -13.3851 67.2090 99 -13.2000 67.3000 TC 25 -13.2782 67.1237 1 18 257
1943081S12076 1943 25 SI MM NOT_NAMED 1943-03-24 15:00:00 TS -13.5187 66.3071 main 1175 1088 _____P___PP___ -1 -13.6572 66.2329 99 -13.4271 66.3924 TC 25 -13.4719 66.2959 1 18 254
1943081S12076 1943 25 SI MM NOT_NAMED 1943-03-24 18:00:00 TS -13.7794 65.4226 main 1080 986 _____P___OO___ -1 -13.9381 65.2679 99 -13.7000 65.5000 TC 25 -13.7000 65.5000 1 19 253
1943081S12076 1943 25 SI MM NOT_NAMED 1943-03-24 21:00:00 TS -14.0757 64.4803 main 986 893 _____P___PP___ -1 -14.2200 64.3377 99 -13.9848 64.5923 TC 25 -14.0223 64.5110 1 19 251
1943081S12076 1943 25 SI MM NOT_NAMED 1943-03-25 00:00:00 TS -14.3898 63.5723 main 893 811 _____P___OP___ -1 -14.4956 63.4667 99 -14.3000 63.7000 TC 25 -14.3739 63.5502 1 18 250
1943081S12076 1943 25 SI MM NOT_NAMED 1943-03-25 03:00:00 TS -14.7172 62.7071 main 804 730 _____P___PP___ -1 -14.7579 62.6793 99 -14.6803 62.7530 TC 30 -14.7133 62.6890 1 16 248
1943081S12076 1943 25 SI MM NOT_NAMED 1943-03-25 06:00:00 TS -15.0000 62.0000 reunion main 730 686 _____O___OO___ -1 -15.0000 62.0000 99 9.90000 -15.0000 62.0000 TC 35 -15.0000 62.0000 2 12 248
1943081S12076 1943 25 SI MM NOT_NAMED 1943-03-25 09:00:00 TS -15.1577 61.5765 main 686 658 _____P___PP___ -1 -15.1715 61.4970 99 -15.1294 61.6595 TC 35 -15.1722 61.5729 2 7 248
1943081S12076 1943 25 SI MM NOT_NAMED 1943-03-25 12:00:00 TS -15.2725 61.3060 main 658 637 _____P___OP___ -1 -15.3250 61.0996 99 -15.2000 61.5000 TC 35 -15.2924 61.3183 2 5 244
1943081S12076 1943 25 SI MM NOT_NAMED 1943-03-25 15:00:00 TS -15.4009 61.0671 main 637 616 _____P___PP___ -1 -15.4686 60.7892 99 -15.3424 61.2575 TC 35 -15.3916 61.1545 2 5 239
1943081S12076 1943 25 SI MM NOT_NAMED 1943-03-25 18:00:00 TS -15.5366 60.8492 main 610 580 _____P___OO___ -1 -15.6098 60.5476 99 -15.5000 61.0000 TC 35 -15.5000 61.0000 2 5 238
1943081S12076 1943 25 SI MM NOT_NAMED 1943-03-25 21:00:00 TS -15.6783 60.5974 main 580 559 _____P___PP___ -1 -15.7562 60.3564 99 -15.6425 60.7000 TC 35 -15.6362 60.7359 2 6 238
1943081S12076 1943 25 SI MM NOT_NAMED 1943-03-26 00:00:00 TS -15.8350 60.3538 main 559 524 _____P___OP___ -1 -15.9152 60.1970 99 -15.8000 60.4000 TC 35 -15.7899 60.4645 2 6 233
1943081S12076 1943 25 SI MM NOT_NAMED 1943-03-26 03:00:00 TS -16.0150 60.1289 main 524 494 _____P___PP___ -1 -16.0940 60.0510 99 -15.9774 60.1499 TC 35 -15.9736 60.1858 2 6 228
1943081S12076 1943 25 SI MM NOT_NAMED 1943-03-26 06:00:00 TS -16.2333 59.9000 reunion main 494 449 _____O___OO___ -1 -16.3000 59.9000 99 9.90000 -16.2000 59.9000 TC 35 -16.2000 59.9000 2 7 227
1943081S12076 1943 25 SI MM NOT_NAMED 1943-03-26 09:00:00 TS -16.4946 59.5955 main 449 405 _____P___PP___ -1 -16.5283 59.5959 99 -16.4775 59.6075 TC 35 -16.4780 59.5831 2 8 227
1943081S12076 1943 25 SI MM NOT_NAMED 1943-03-26 12:00:00 TS -16.7921 59.2844 main 405 362 _____P___OP___ -1 -16.7785 59.2901 99 -16.8000 59.3000 TC 35 -16.7977 59.2630 2 9 224
1943081S12076 1943 25 SI MM NOT_NAMED 1943-03-26 15:00:00 TS -17.1125 58.9803 main 362 319 _____P___PP___ -1 -17.0514 58.9946 99 -17.1425 58.9850 TC 35 -17.1436 58.9613 2 9 220
1943081S12076 1943 25 SI MM NOT_NAMED 1943-03-26 18:00:00 TS -17.4494 58.7072 main 319 270 _____P___OO___ -1 -17.3483 58.7216 99 -17.5000 58.7000 TC 35 -17.5000 58.7000 2 8 216
1943081S12076 1943 25 SI MM NOT_NAMED 1943-03-26 21:00:00 TS -17.7782 58.4692 main 270 232 _____P___PP___ -1 -17.6703 58.4832 99 -17.8500 58.4699 TC 35 -17.8142 58.4544 2 8 211
1943081S12076 1943 25 SI MM NOT_NAMED 1943-03-27 00:00:00 TS -18.1195 58.2834 main 232 197 _____P___OP___ -1 -18.0187 58.2918 99 -18.2000 58.3000 TC 35 -18.1398 58.2582 2 8 204
1943081S12076 1943 25 SI MM NOT_NAMED 1943-03-27 03:00:00 TS -18.4701 58.1493 main 183 151 _____P___PP___ -1 -18.3949 58.1599 99 -18.5200 58.1551 TC 35 -18.4955 58.1329 2 8 193
1943081S12076 1943 25 SI MM NOT_NAMED 1943-03-27 06:00:00 TS -18.8667 58.1000 reunion main 140 98 _____O___OO___ -1 -18.8000 58.1000 99 9.90000 -18.9000 58.1000 TC 35 -18.9000 58.1000 2 9 181
1943081S12076 1943 25 SI MM NOT_NAMED 1943-03-27 09:00:00 TS -19.3474 58.1479 main 98 62 _____P___PP___ -1 -19.2280 58.1275 99 -19.4275 58.1475 TC 35 -19.3868 58.1686 2 10 170
1943081S12076 1943 25 SI MM NOT_NAMED 1943-03-27 12:00:00 TS -19.8692 58.2853 main 66 62 _____P___OP___ -1 -19.6876 58.2268 99 -20.0000 58.3000 TC 35 -19.9200 58.3290 2 11 163
1943081S12076 1943 25 SI MM NOT_NAMED 1943-03-27 15:00:00 TS -20.3855 58.4887 main 73 73 _____P___PP___ -1 -20.1733 58.3885 99 -20.5150 58.5274 TC 35 -20.4682 58.5501 2 11 158
1943081S12076 1943 25 SI MM NOT_NAMED 1943-03-27 18:00:00 TS -20.8932 58.7344 main 113 113 _____P___OO___ -1 -20.6796 58.6032 99 -21.0000 58.8000 TC 35 -21.0000 58.8000 2 11 155
1943081S12076 1943 25 SI MM NOT_NAMED 1943-03-27 21:00:00 TS -21.3712 58.9749 main 168 168 _____P___PP___ -1 -21.2009 58.8614 99 -21.4575 59.0502 TC 35 -21.4551 59.0131 2 11 154
1943081S12076 1943 25 SI MM NOT_NAMED 1943-03-28 00:00:00 TS -21.8413 59.2341 main 212 212 _____P___OP___ -1 -21.7317 59.1534 99 -21.9000 59.3000 TC 35 -21.8922 59.2490 2 11 152
1943081S12076 1943 25 SI MM NOT_NAMED 1943-03-28 03:00:00 TS -22.3115 59.5051 main 274 274 _____P___PP___ -1 -22.2666 59.4696 99 -22.3349 59.5354 TC 35 -22.3332 59.5103 2 11 151
1943081S12076 1943 25 SI MM NOT_NAMED 1943-03-28 06:00:00 TS -22.8000 59.8000 reunion main 336 336 _____O___OO___ -1 -22.8000 59.8000 99 9.90000 -22.8000 59.8000 TC 35 -22.8000 59.8000 2 12 151
1943081S12076 1943 25 SI MM NOT_NAMED 1943-03-28 09:00:00 TS -23.3469 60.1290 main 399 399 _____P___PP___ -1 -23.3681 60.1310 99 -23.3350 60.1350 TC 35 -23.3375 60.1209 2 13 150
1943081S12076 1943 25 SI MM NOT_NAMED 1943-03-28 12:00:00 TS -23.9152 60.4865 main 476 476 _____P___OP___ -1 -23.9456 60.4899 99 -23.9000 60.5000 TC 35 -23.9001 60.4696 2 13 150
1943081S12076 1943 25 SI MM NOT_NAMED 1943-03-28 15:00:00 TS -24.4824 60.8499 main 548 548 _____P___PP___ -1 -24.5199 60.8659 99 -24.4649 60.8502 TC 35 -24.4625 60.8336 2 13 149
1943081S12076 1943 25 SI MM NOT_NAMED 1943-03-28 18:00:00 TS -25.0260 61.2160 main 617 617 _____P___OO___ -1 -25.0781 61.2480 99 -25.0000 61.2000 TC 35 -25.0000 61.2000 2 12 148
1943081S12076 1943 25 SI MM NOT_NAMED 1943-03-28 21:00:00 TS -25.5222 61.5777 main 686 686 _____P___PP___ -1 -25.6077 61.6245 99 -25.4649 61.5504 TC 35 -25.4939 61.5583 2 12 146
1943081S12076 1943 25 SI MM NOT_NAMED 1943-03-29 00:00:00 TS -25.9936 61.9361 main 749 749 _____P___OP___ -1 -26.0962 61.9835 99 -25.9000 61.9000 TC 35 -25.9504 61.9089 2 11 146
1943081S12076 1943 25 SI MM NOT_NAMED 1943-03-29 03:00:00 TS -26.4472 62.2825 main 809 809 _____P___PP___ -1 -26.5310 62.3129 99 -26.3452 62.2494 TC 35 -26.3817 62.2550 2 11 146
1943081S12076 1943 25 SI MM NOT_NAMED 1943-03-29 06:00:00 TS -26.8667 62.6000 reunion main 871 871 _____O___OO___ -1 -26.9000 62.6000 99 9.90000 -26.8000 62.6000 TC 35 -26.8000 62.6000 2 9 147
1943081S12076 1943 25 SI MM NOT_NAMED 1943-03-29 09:00:00 NR -27.1946 62.8354 main 910 910 _____P________ -1 -27.1946 62.8354 99 TC 2 7 146
1943081S12076 1943 25 SI MM NOT_NAMED 1943-03-29 12:00:00 NR -27.4212 63.0221 main 940 940 _____P________ -1 -27.4212 63.0221 99 2 5 143
1943081S12076 1943 25 SI MM NOT_NAMED 1943-03-29 15:00:00 NR -27.5895 63.1668 main 969 969 _____P________ -1 -27.5895 63.1668 99 2 4 142
1943081S12076 1943 25 SI MM NOT_NAMED 1943-03-29 18:00:00 NR -27.7095 63.2761 main 984 984 _____P________ -1 -27.7095 63.2761 99 3 140
1943081S12076 1943 25 SI MM NOT_NAMED 1943-03-29 21:00:00 NR -27.7909 63.3571 main 999 999 _____P________ -1 -27.7909 63.3571 99 2 138
1943081S12076 1943 25 SI MM NOT_NAMED 1943-03-30 00:00:00 NR -27.8433 63.4166 main 999 999 _____P________ -1 -27.8433 63.4166 99 1 133
1943081S12076 1943 25 SI MM NOT_NAMED 1943-03-30 03:00:00 NR -27.8765 63.4619 main 1014 1014 _____P________ -1 -27.8765 63.4619 99 1 130
1943081S12076 1943 25 SI MM NOT_NAMED 1943-03-30 06:00:00 NR -27.9000 63.5000 reunion main 1014 _____O________ -1 -27.9000 63.5000 99 9.90000 1 126

IBTrACS Databaseについて

本データベースは、米国NOAAが公開する1842年以降の世界の熱帯低気圧のベストトラックデータアーカイブInternational Best Track Archive for Climate Stewardship (IBTrACS)を、ウェブで閲覧しやすい形式に変換したものです。

最終更新日:2021-10-08